createdAt,value
2023-05-03T00:01:38.177Z,53.23
2023-05-03T00:04:06.228Z,52.87
2023-05-03T00:06:34.183Z,52.94
2023-05-03T00:09:02.501Z,53.35
2023-05-03T00:11:30.388Z,53.15
2023-05-03T00:13:58.253Z,52.98
2023-05-03T00:16:27.628Z,53.26
2023-05-03T00:18:55.500Z,53.15
2023-05-03T00:21:23.367Z,53.35
2023-05-03T00:23:51.272Z,53.33
2023-05-03T00:26:19.295Z,53.17
2023-05-03T00:28:47.182Z,53.37
2023-05-03T00:31:15.356Z,53.14
2023-05-03T00:33:44.699Z,53.72
2023-05-03T00:36:13.360Z,53.60
2023-05-03T00:38:41.492Z,53.62
2023-05-03T00:41:10.787Z,53.44
2023-05-03T00:43:38.740Z,53.36
2023-05-03T00:46:16.138Z,53.60
2023-05-03T00:48:46.952Z,53.63
2023-05-03T00:51:15.548Z,53.74
2023-05-03T00:53:43.839Z,53.67
2023-05-03T00:56:12.350Z,53.74
2023-05-03T00:58:40.698Z,53.86
2023-05-03T01:01:08.855Z,53.53
2023-05-03T01:03:37.728Z,53.58
2023-05-03T01:06:11.887Z,53.70
2023-05-03T01:08:42.488Z,54.03
2023-05-03T01:11:13.283Z,53.96
2023-05-03T01:13:44.540Z,54.20
2023-05-03T01:16:15.794Z,53.89
2023-05-03T01:18:46.653Z,53.99
2023-05-03T01:21:16.720Z,54.25
2023-05-03T01:23:47.548Z,54.28
2023-05-03T01:26:22.510Z,54.15
2023-05-03T01:28:50.399Z,53.98
2023-05-03T01:31:22.094Z,54.20
2023-05-03T01:33:54.997Z,54.36
2023-05-03T01:36:24.348Z,54.32
2023-05-03T01:38:52.228Z,54.23
2023-05-03T01:41:20.100Z,54.33
2023-05-03T01:43:49.371Z,54.25
2023-05-03T01:46:17.302Z,54.58
2023-05-03T01:48:45.219Z,54.51
2023-05-03T01:51:13.109Z,54.54
2023-05-03T01:53:41.844Z,54.52
2023-05-03T01:56:09.916Z,54.46
2023-05-03T01:58:37.834Z,54.33
2023-05-03T02:01:08.030Z,54.42
2023-05-03T02:03:36.064Z,54.27
2023-05-03T02:06:04.000Z,54.62
2023-05-03T02:08:31.944Z,54.37
2023-05-03T02:10:59.799Z,54.50
2023-05-03T02:13:27.676Z,54.37
2023-05-03T02:15:56.101Z,54.37
2023-05-03T02:18:26.290Z,54.74
2023-05-03T02:20:54.133Z,54.32
2023-05-03T02:23:22.070Z,54.42
2023-05-03T02:25:50.212Z,54.53
2023-05-03T02:28:18.137Z,54.43
2023-05-03T02:30:46.150Z,54.39
2023-05-03T02:33:14.053Z,54.06
2023-05-03T02:35:43.746Z,54.08
2023-05-03T02:38:11.759Z,54.15
2023-05-03T02:40:39.640Z,53.74
2023-05-03T02:43:07.558Z,53.71
2023-05-03T02:45:36.592Z,53.58
2023-05-03T02:48:04.805Z,53.78
2023-05-03T02:50:32.713Z,53.34
2023-05-03T02:53:02.104Z,53.20
2023-05-03T02:55:29.995Z,53.16
2023-05-03T02:57:57.861Z,53.12
2023-05-03T03:00:25.773Z,53.35
2023-05-03T03:02:53.650Z,52.97
2023-05-03T03:05:21.784Z,53.04
2023-05-03T03:07:49.630Z,53.02
2023-05-03T03:10:19.108Z,53.13
2023-05-03T03:12:47.447Z,52.98
2023-05-03T03:15:15.287Z,52.94
2023-05-03T03:17:43.204Z,52.90
2023-05-03T03:20:12.889Z,52.75
2023-05-03T03:22:40.917Z,53.00
2023-05-03T03:25:10.596Z,52.79
2023-05-03T03:27:40.072Z,53.00
2023-05-03T03:30:09.590Z,52.92
2023-05-03T03:32:37.616Z,52.69
2023-05-03T03:35:06.204Z,52.64
2023-05-03T03:37:34.116Z,52.71
2023-05-03T03:40:02.225Z,52.74
2023-05-03T03:42:30.328Z,52.90
2023-05-03T03:44:59.616Z,53.05
2023-05-03T03:47:27.587Z,52.98
2023-05-03T03:49:55.726Z,52.86
2023-05-03T03:52:23.626Z,52.96
2023-05-03T03:54:51.546Z,52.63
2023-05-03T03:57:19.422Z,52.94
2023-05-03T03:59:47.316Z,52.95
2023-05-03T04:02:16.605Z,52.54
2023-05-03T04:04:44.499Z,52.66
2023-05-03T04:07:12.656Z,52.89
2023-05-03T04:09:40.558Z,52.78
2023-05-03T04:12:08.606Z,52.88
2023-05-03T04:14:36.466Z,52.61
2023-05-03T04:17:04.770Z,52.59
2023-05-03T04:19:34.162Z,52.84
2023-05-03T04:22:02.115Z,52.62
2023-05-03T04:24:30.640Z,52.77
2023-05-03T04:26:58.894Z,52.69
2023-05-03T04:29:27.192Z,52.63
2023-05-03T04:31:55.067Z,52.87
2023-05-03T04:34:23.557Z,52.86
2023-05-03T04:36:52.829Z,52.95
2023-05-03T04:39:22.124Z,52.91
2023-05-03T04:41:50.007Z,53.02
2023-05-03T04:44:17.901Z,52.95
2023-05-03T04:46:46.774Z,52.81
2023-05-03T04:49:15.711Z,52.80
2023-05-03T04:51:43.660Z,53.00
2023-05-03T04:54:12.972Z,52.70
2023-05-03T04:56:40.842Z,52.60
2023-05-03T04:59:09.102Z,53.08
2023-05-03T05:01:36.954Z,52.80
2023-05-03T05:04:05.039Z,53.05
2023-05-03T05:06:32.966Z,52.78
2023-05-03T05:09:01.002Z,52.95
2023-05-03T05:11:30.273Z,52.94
2023-05-03T05:13:58.183Z,52.94
2023-05-03T05:16:26.824Z,52.89
2023-05-03T05:18:54.710Z,52.65
2023-05-03T05:21:22.582Z,52.82
2023-05-03T05:23:50.510Z,52.41
2023-05-03T05:26:18.396Z,52.76
2023-05-03T05:28:47.631Z,52.33
2023-05-03T05:31:15.690Z,52.51
2023-05-03T05:33:43.583Z,52.54
2023-05-03T05:36:11.457Z,52.41
2023-05-03T05:38:39.294Z,52.39
2023-05-03T05:41:07.269Z,52.41
2023-05-03T05:43:35.130Z,52.14
2023-05-03T05:46:04.826Z,52.00
2023-05-03T05:48:32.671Z,51.91
2023-05-03T05:51:00.507Z,52.17
2023-05-03T05:53:28.615Z,52.04
2023-05-03T05:55:56.563Z,52.08
2023-05-03T05:58:24.649Z,51.82
2023-05-03T06:00:52.896Z,51.74
2023-05-03T06:03:22.213Z,51.45
2023-05-03T06:05:50.459Z,51.80
2023-05-03T06:08:18.313Z,51.53
2023-05-03T06:10:46.174Z,51.74
2023-05-03T06:13:14.064Z,51.42
2023-05-03T06:15:42.140Z,51.30
2023-05-03T06:18:10.118Z,50.99
2023-05-03T06:20:39.529Z,51.26
2023-05-03T06:23:07.443Z,51.11
2023-05-03T06:25:36.250Z,50.86
2023-05-03T06:28:04.653Z,50.94
2023-05-03T06:30:32.721Z,50.88
2023-05-03T06:33:00.680Z,50.78
2023-05-03T06:35:28.641Z,50.20
2023-05-03T06:37:57.958Z,50.32
2023-05-03T06:40:27.399Z,49.88
2023-05-03T06:42:55.319Z,49.74
2023-05-03T06:45:23.222Z,49.66
2023-05-03T06:47:51.224Z,49.81
2023-05-03T06:50:20.181Z,49.58
2023-05-03T06:52:48.621Z,49.53
2023-05-03T06:55:18.087Z,49.36
2023-05-03T06:57:47.628Z,49.25
2023-05-03T07:00:16.534Z,48.90
2023-05-03T07:02:44.522Z,49.15
2023-05-03T07:05:12.752Z,48.85
2023-05-03T07:07:40.634Z,49.08
2023-05-03T07:10:09.229Z,48.89
2023-05-03T07:12:38.476Z,49.14
2023-05-03T07:15:07.144Z,48.87
2023-05-03T07:17:35.077Z,48.50
2023-05-03T07:20:03.898Z,49.08
2023-05-03T07:22:31.995Z,48.75
2023-05-03T07:25:00.091Z,49.13
2023-05-03T07:27:28.251Z,49.13
2023-05-03T07:29:57.840Z,48.67
2023-05-03T07:32:25.909Z,48.68
2023-05-03T07:34:53.880Z,48.77
2023-05-03T07:37:22.372Z,48.97
2023-05-03T07:39:52.159Z,48.25
2023-05-03T07:42:20.021Z,48.26
2023-05-03T07:44:47.905Z,47.97
2023-05-03T07:47:17.240Z,47.70
2023-05-03T07:49:45.142Z,47.97
2023-05-03T07:52:13.057Z,47.72
2023-05-03T07:54:43.036Z,47.59
2023-05-03T07:57:10.961Z,47.55
2023-05-03T07:59:39.016Z,47.63
2023-05-03T08:02:07.020Z,47.43
2023-05-03T08:04:36.593Z,47.39
2023-05-03T08:07:04.717Z,47.04
2023-05-03T08:09:32.546Z,46.68
2023-05-03T08:12:00.400Z,46.90
2023-05-03T08:14:28.515Z,46.61
2023-05-03T08:16:56.445Z,46.77
2023-05-03T08:19:24.292Z,46.93
2023-05-03T08:21:54.540Z,46.96
2023-05-03T08:24:22.427Z,46.56
2023-05-03T08:26:52.707Z,46.66
2023-05-03T08:29:21.153Z,46.32
2023-05-03T08:31:49.251Z,46.11
2023-05-03T08:34:17.219Z,46.41
2023-05-03T08:36:45.567Z,46.57
2023-05-03T08:39:15.380Z,46.44
2023-05-03T08:41:43.358Z,46.07
2023-05-03T08:44:13.672Z,45.98
2023-05-03T08:46:41.580Z,46.01
2023-05-03T08:49:09.461Z,46.19
2023-05-03T08:51:37.446Z,46.29
2023-05-03T08:54:05.552Z,46.05
2023-05-03T08:56:36.514Z,46.34
2023-05-03T08:59:07.973Z,46.20
2023-05-03T09:01:36.933Z,46.19
2023-05-03T09:04:05.322Z,46.25
2023-05-03T09:06:34.283Z,46.54
2023-05-03T09:09:02.568Z,45.99
2023-05-03T09:11:31.037Z,45.80
2023-05-03T09:14:11.038Z,45.85
2023-05-03T09:16:39.294Z,45.72
2023-05-03T09:19:09.489Z,45.69
2023-05-03T09:21:37.392Z,45.75
2023-05-03T09:24:13.667Z,45.36
2023-05-03T09:26:42.304Z,45.10
2023-05-03T09:29:11.541Z,44.81
2023-05-03T09:31:39.572Z,44.80
2023-05-03T09:34:22.333Z,44.93
2023-05-03T09:36:50.246Z,44.33
2023-05-03T09:39:18.264Z,44.39
2023-05-03T09:41:46.186Z,43.83
2023-05-03T09:44:15.482Z,43.42
2023-05-03T09:46:59.287Z,43.27
2023-05-03T09:49:27.179Z,42.87
2023-05-03T09:51:55.113Z,43.34
2023-05-03T09:54:23.684Z,43.32
2023-05-03T09:56:53.138Z,43.06
2023-05-03T09:59:22.359Z,42.67
2023-05-03T10:01:50.418Z,42.99
2023-05-03T10:04:19.744Z,42.92
2023-05-03T10:06:48.429Z,42.54
2023-05-03T10:09:30.158Z,42.43
2023-05-03T10:12:00.330Z,42.32
2023-05-03T10:14:29.719Z,42.32
2023-05-03T10:17:00.777Z,41.66
2023-05-03T10:19:30.720Z,41.29
2023-05-03T10:22:04.764Z,41.05
2023-05-03T10:24:32.754Z,40.95
2023-05-03T10:27:00.715Z,41.24
2023-05-03T10:29:54.019Z,41.29
2023-05-03T10:32:32.460Z,40.86
2023-05-03T10:35:05.813Z,40.71
2023-05-03T10:37:34.557Z,40.04
2023-05-03T10:40:13.805Z,40.18
2023-05-03T10:42:45.013Z,39.35
2023-05-03T10:45:25.895Z,39.48
2023-05-03T10:48:32.464Z,38.81
2023-05-03T10:51:38.943Z,39.31
2023-05-03T10:54:07.690Z,39.30
2023-05-03T10:56:35.523Z,38.83
2023-05-03T10:59:03.465Z,38.58
2023-05-03T11:01:34.388Z,37.75
2023-05-03T11:04:05.384Z,38.30
2023-05-03T11:06:34.508Z,38.13
2023-05-03T11:09:03.806Z,37.48
2023-05-03T11:11:32.270Z,37.17
2023-05-03T11:14:00.203Z,37.15
2023-05-03T11:16:28.423Z,37.10
2023-05-03T11:18:57.793Z,37.05
2023-05-03T11:21:26.209Z,37.44
2023-05-03T11:23:54.123Z,36.92
2023-05-03T11:26:26.528Z,37.40
2023-05-03T11:28:54.730Z,38.05
2023-05-03T11:31:22.950Z,37.82
2023-05-03T11:33:51.247Z,37.86
2023-05-03T11:36:20.533Z,36.86
2023-05-03T11:38:48.429Z,36.66
2023-05-03T11:41:17.514Z,36.17
2023-05-03T11:43:45.659Z,35.53
2023-05-03T11:46:14.309Z,35.11
2023-05-03T11:48:43.862Z,34.76
2023-05-03T11:51:12.618Z,34.46
2023-05-03T11:53:42.873Z,33.97
2023-05-03T11:56:17.193Z,33.55
2023-05-03T11:58:56.134Z,34.62
2023-05-03T12:01:24.616Z,34.63
2023-05-03T12:03:56.485Z,34.34
2023-05-03T12:06:25.568Z,33.89
2023-05-03T12:08:56.359Z,34.05
2023-05-03T12:11:27.353Z,33.84
2023-05-03T12:13:59.974Z,33.02
2023-05-03T12:16:28.203Z,32.29
2023-05-03T12:18:58.782Z,32.42
2023-05-03T12:21:54.088Z,32.39
2023-05-03T12:24:29.010Z,32.78
2023-05-03T12:26:57.836Z,32.43
2023-05-03T12:29:25.785Z,32.43
2023-05-03T12:31:53.758Z,32.74
2023-05-03T12:34:33.900Z,33.00
2023-05-03T12:37:06.081Z,32.40
2023-05-03T12:39:39.207Z,32.45
2023-05-03T12:42:08.875Z,31.69
2023-05-03T12:44:41.704Z,31.43
2023-05-03T12:47:10.537Z,31.34
2023-05-03T12:49:39.641Z,31.39
2023-05-03T12:54:42.262Z,31.29
2023-05-03T12:57:15.698Z,31.15
2023-05-03T12:59:50.420Z,30.13
2023-05-03T13:03:19.484Z,30.05
2023-05-03T13:05:12.583Z,29.51
2023-05-03T13:07:55.702Z,29.77
2023-05-03T13:10:27.130Z,29.80
2023-05-03T13:12:55.384Z,29.57
2023-05-03T13:15:25.099Z,29.18
2023-05-03T13:17:54.437Z,28.97
2023-05-03T13:20:22.711Z,28.35
2023-05-03T13:22:50.583Z,28.38
2023-05-03T13:25:18.551Z,28.91
2023-05-03T13:27:50.307Z,28.25
2023-05-03T13:30:21.441Z,29.15
2023-05-03T13:32:49.373Z,28.57
2023-05-03T13:35:18.049Z,27.88
2023-05-03T13:37:45.934Z,29.26
2023-05-03T13:40:15.338Z,28.56
2023-05-03T13:42:43.236Z,28.39
2023-05-03T13:45:13.636Z,28.88
2023-05-03T13:48:04.876Z,29.12
2023-05-03T13:50:30.396Z,29.15
2023-05-03T13:52:58.366Z,29.38
2023-05-03T13:55:27.076Z,29.24
2023-05-03T13:57:55.060Z,29.18
2023-05-03T14:00:24.627Z,29.26
2023-05-03T14:02:52.591Z,28.58
2023-05-03T14:05:20.892Z,29.22
2023-05-03T14:07:48.855Z,29.14
2023-05-03T14:12:45.289Z,29.29
2023-05-03T14:15:13.574Z,29.59
2023-05-03T14:17:43.630Z,29.95
2023-05-03T14:20:12.429Z,29.93
2023-05-03T14:22:40.485Z,29.93
2023-05-03T14:25:09.657Z,29.96
2023-05-03T14:27:37.597Z,30.01
2023-05-03T14:30:07.296Z,30.34
2023-05-03T14:32:35.283Z,30.11
2023-05-03T14:35:05.019Z,29.57
2023-05-03T14:37:33.354Z,29.66
2023-05-03T14:40:02.234Z,29.84
2023-05-03T14:42:32.031Z,30.05
2023-05-03T14:44:59.930Z,28.67
2023-05-03T14:47:27.935Z,27.66
2023-05-03T14:49:56.321Z,27.26
2023-05-03T14:52:25.574Z,27.91
2023-05-03T14:54:54.555Z,27.49
2023-05-03T14:57:22.471Z,27.32
2023-05-03T14:59:50.512Z,27.40
2023-05-03T15:02:19.259Z,27.59
2023-05-03T15:04:47.300Z,27.83
2023-05-03T15:07:15.475Z,28.49
2023-05-03T15:09:44.900Z,28.44
2023-05-03T15:12:12.817Z,27.20
2023-05-03T15:14:40.867Z,27.40
2023-05-03T15:17:08.895Z,27.79
2023-05-03T15:19:37.007Z,27.85
2023-05-03T15:22:04.887Z,28.10
2023-05-03T15:24:32.933Z,28.30
2023-05-03T15:27:04.618Z,27.84
2023-05-03T15:29:32.521Z,27.05
2023-05-03T15:32:01.701Z,27.49
2023-05-03T15:34:29.618Z,26.79
2023-05-03T15:36:57.558Z,27.42
2023-05-03T15:39:25.420Z,27.65
2023-05-03T15:41:53.499Z,28.33
2023-05-03T15:44:22.789Z,28.49
2023-05-03T15:46:50.914Z,29.15
2023-05-03T15:49:18.851Z,30.17
2023-05-03T15:51:47.082Z,30.58
2023-05-03T15:54:14.984Z,30.32
2023-05-03T15:56:43.017Z,30.54
2023-05-03T15:59:15.005Z,30.98
2023-05-03T16:01:44.370Z,30.58
2023-05-03T16:04:12.251Z,30.65
2023-05-03T16:06:40.365Z,30.79
2023-05-03T16:09:08.275Z,31.06
2023-05-03T16:11:36.340Z,31.14
2023-05-03T16:14:04.909Z,31.07
2023-05-03T16:16:32.818Z,31.77
2023-05-03T16:19:02.114Z,31.10
2023-05-03T16:21:30.080Z,31.74
2023-05-03T16:23:57.942Z,31.75
2023-05-03T16:26:26.078Z,31.63
2023-05-03T16:28:53.956Z,31.96
2023-05-03T16:31:22.965Z,31.50
2023-05-03T16:33:50.940Z,31.70
2023-05-03T16:36:20.187Z,31.67
2023-05-03T16:38:48.891Z,32.13
2023-05-03T16:41:16.773Z,31.76
2023-05-03T16:43:44.739Z,31.75
2023-05-03T16:46:12.804Z,31.74
2023-05-03T16:48:40.745Z,32.10
2023-05-03T16:51:08.750Z,32.09
2023-05-03T16:53:38.029Z,32.17
2023-05-03T16:56:06.400Z,32.26
2023-05-03T16:58:34.267Z,32.52
2023-05-03T17:01:02.459Z,32.81
2023-05-03T17:03:30.784Z,33.06
2023-05-03T17:06:01.416Z,33.40
2023-05-03T17:08:30.236Z,34.03
2023-05-03T17:11:01.546Z,34.24
2023-05-03T17:13:29.560Z,34.31
2023-05-03T17:15:57.434Z,34.52
2023-05-03T17:18:25.403Z,34.53
2023-05-03T17:20:53.358Z,34.72
2023-05-03T17:23:21.337Z,34.88
2023-05-03T17:25:56.322Z,35.34
2023-05-03T17:28:25.561Z,35.38
2023-05-03T17:30:55.102Z,35.57
2023-05-03T17:33:22.981Z,35.61
2023-05-03T17:35:51.219Z,35.78
2023-05-03T17:38:19.925Z,35.82
2023-05-03T17:40:48.900Z,35.99
2023-05-03T17:43:17.719Z,36.00
2023-05-03T17:45:48.426Z,36.58
2023-05-03T17:48:18.481Z,36.72
2023-05-03T17:50:46.771Z,36.98
2023-05-03T17:53:18.401Z,37.02
2023-05-03T17:55:46.313Z,37.49
2023-05-03T17:58:14.143Z,37.29
2023-05-03T18:00:43.196Z,37.70
2023-05-03T18:03:13.361Z,37.71
2023-05-03T18:05:41.314Z,38.00
2023-05-03T18:08:09.349Z,38.13
2023-05-03T18:10:37.408Z,38.27
2023-05-03T18:13:05.489Z,38.42
2023-05-03T18:15:33.393Z,38.43
2023-05-03T18:18:01.315Z,38.86
2023-05-03T18:20:31.040Z,38.92
2023-05-03T18:22:58.929Z,38.99
2023-05-03T18:25:26.884Z,39.42
2023-05-03T18:27:54.791Z,39.29
2023-05-03T18:30:23.404Z,39.42
2023-05-03T18:32:51.345Z,39.73
2023-05-03T18:35:19.514Z,39.80
2023-05-03T18:37:48.723Z,39.98
2023-05-03T18:40:17.124Z,39.96
2023-05-03T18:42:45.139Z,39.97
2023-05-03T18:45:15.130Z,40.04
2023-05-03T18:47:43.029Z,40.21
2023-05-03T18:50:11.293Z,39.89
2023-05-03T18:52:39.756Z,40.23
2023-05-03T18:55:09.774Z,40.15
2023-05-03T18:57:38.191Z,40.12
2023-05-03T19:00:07.415Z,40.22
2023-05-03T19:02:35.325Z,40.26
2023-05-03T19:05:03.253Z,40.47
2023-05-03T19:07:31.224Z,40.62
2023-05-03T19:09:59.155Z,40.25
2023-05-03T19:12:28.480Z,40.58
2023-05-03T19:14:56.430Z,40.50
2023-05-03T19:17:24.433Z,40.50
2023-05-03T19:19:52.376Z,40.90
2023-05-03T19:22:20.298Z,40.71
2023-05-03T19:24:48.246Z,40.71
2023-05-03T19:27:16.963Z,40.76
2023-05-03T19:29:46.325Z,41.06
2023-05-03T19:32:14.459Z,41.15
2023-05-03T19:34:42.426Z,41.60
2023-05-03T19:37:10.574Z,41.74
2023-05-03T19:39:38.651Z,41.91
2023-05-03T19:42:10.148Z,41.73
2023-05-03T19:44:38.121Z,41.75
2023-05-03T19:47:07.445Z,41.86
2023-05-03T19:49:35.308Z,42.24
2023-05-03T19:52:06.079Z,42.13
2023-05-03T19:54:34.055Z,41.94
2023-05-03T19:57:04.747Z,42.40
2023-05-03T19:59:32.669Z,42.40
2023-05-03T20:02:00.641Z,42.35
2023-05-03T20:04:30.065Z,42.26
2023-05-03T20:06:57.984Z,42.43
2023-05-03T20:09:26.102Z,42.07
2023-05-03T20:11:58.771Z,42.48
2023-05-03T20:14:27.250Z,42.35
2023-05-03T20:16:56.997Z,42.65
2023-05-03T20:19:25.578Z,42.48
2023-05-03T20:21:54.817Z,42.51
2023-05-03T20:24:22.754Z,42.56
2023-05-03T20:26:50.704Z,42.44
2023-05-03T20:29:18.695Z,42.70
2023-05-03T20:31:48.323Z,42.60
2023-05-03T20:34:16.746Z,42.81
2023-05-03T20:36:44.965Z,42.67
2023-05-03T20:39:14.717Z,42.40
2023-05-03T20:41:42.566Z,42.78
2023-05-03T20:44:10.558Z,42.53
2023-05-03T20:46:38.968Z,42.40
2023-05-03T20:49:08.302Z,42.68
2023-05-03T20:51:37.750Z,42.08
2023-05-03T20:54:05.868Z,42.21
2023-05-03T20:56:35.121Z,41.74
2023-05-03T20:59:03.787Z,41.91
2023-05-03T21:01:32.047Z,41.43
2023-05-03T21:03:59.938Z,41.66
2023-05-03T21:06:28.244Z,41.21
2023-05-03T21:08:56.148Z,40.96
2023-05-03T21:11:24.022Z,40.93
2023-05-03T21:13:53.656Z,40.83
2023-05-03T21:16:21.533Z,40.67
2023-05-03T21:18:49.404Z,40.18
2023-05-03T21:21:17.359Z,39.80
2023-05-03T21:23:45.369Z,39.74
2023-05-03T21:26:13.343Z,39.14
2023-05-03T21:28:41.331Z,39.29
2023-05-03T21:31:10.643Z,38.69
2023-05-03T21:33:38.617Z,38.40
2023-05-03T21:36:07.049Z,38.51
2023-05-03T21:38:35.898Z,38.46
2023-05-03T21:41:05.227Z,38.11
2023-05-03T21:43:33.341Z,38.20
2023-05-03T21:46:01.259Z,37.90
2023-05-03T21:48:31.368Z,37.37
2023-05-03T21:50:59.243Z,37.56
2023-05-03T21:53:27.140Z,37.46
2023-05-03T21:55:55.078Z,37.43
2023-05-03T21:58:22.998Z,36.87
2023-05-03T22:00:50.837Z,36.96
2023-05-03T22:03:18.898Z,36.83
2023-05-03T22:05:50.467Z,37.13
2023-05-03T22:08:19.096Z,36.76
2023-05-03T22:10:46.992Z,36.98
2023-05-03T22:13:14.960Z,37.26
2023-05-03T22:15:42.938Z,37.45
2023-05-03T22:18:11.512Z,37.65
2023-05-03T22:20:39.430Z,37.64
2023-05-03T22:23:08.757Z,38.51
2023-05-03T22:25:36.647Z,38.66
2023-05-03T22:28:04.537Z,38.78
2023-05-03T22:30:32.410Z,38.99
2023-05-03T22:33:00.315Z,38.93
2023-05-03T22:35:28.533Z,39.21
2023-05-03T22:37:56.414Z,39.30
2023-05-03T22:40:25.836Z,39.52
2023-05-03T22:42:53.732Z,39.28
2023-05-03T22:45:21.717Z,39.44
2023-05-03T22:47:49.759Z,39.52
2023-05-03T22:50:17.853Z,40.07
2023-05-03T22:52:45.745Z,39.80
2023-05-03T22:55:13.812Z,40.39
2023-05-03T22:57:43.080Z,40.34
2023-05-03T23:00:12.402Z,40.51
2023-05-03T23:02:40.319Z,40.81
2023-05-03T23:05:09.184Z,41.05
2023-05-03T23:07:37.078Z,40.62
2023-05-03T23:10:06.132Z,40.95
2023-05-03T23:12:34.608Z,41.03
2023-05-03T23:15:03.902Z,40.89
2023-05-03T23:17:31.804Z,41.33
2023-05-03T23:19:59.714Z,41.59
2023-05-03T23:22:27.615Z,41.18
2023-05-03T23:24:55.481Z,41.45
2023-05-03T23:27:23.338Z,41.92
2023-05-03T23:29:52.007Z,42.01
2023-05-03T23:32:21.973Z,42.18
2023-05-03T23:34:50.151Z,42.26
2023-05-03T23:37:18.025Z,42.54
2023-05-03T23:39:45.920Z,42.42
2023-05-03T23:42:13.865Z,42.53
2023-05-03T23:44:50.864Z,42.54
2023-05-03T23:47:23.658Z,42.41
2023-05-03T23:49:52.007Z,42.48
2023-05-03T23:52:20.495Z,42.64
2023-05-03T23:54:48.598Z,43.15
2023-05-03T23:57:16.474Z,42.75
2023-05-03T23:59:44.358Z,43.28
